Time;durP1;ratioP1;P1;durP2;ratioP2;P2;SDS_P1;SDS_P2;PMS_P1;PMS_P2;Temp;Humidity;BMP_temperature;BMP_pressure;BME280_temperature;BME280_humidity;BME280_pressure;Samples;Min_cycle;Max_cycle;Signal;HPM_P1;HPM_P2
2023/03/06 00:00:21;;;;;;;;;25.25;21.50;;;;;8.80;100.00;100855.34;5038896;28;45219;-81
2023/03/06 00:02:46;;;;;;;;;29.50;20.75;;;;;8.72;100.00;100849.91;5039709;28;45683;-81
2023/03/06 00:05:13;;;;;;;;;25.00;20.50;;;;;8.69;100.00;100857.75;5035950;28;68935;-79
2023/03/06 00:07:38;;;;;;;;;28.00;21.75;;;;;8.63;100.00;100852.38;5048110;28;45457;-79
2023/03/06 00:10:04;;;;;;;;;21.50;19.50;;;;;8.60;100.00;100850.56;5038262;28;45475;-80
2023/03/06 00:12:29;;;;;;;;;27.25;19.00;;;;;8.57;100.00;100844.34;5047320;28;45496;-80
2023/03/06 00:14:55;;;;;;;;;29.75;22.00;;;;;8.56;100.00;100846.09;5035811;28;53933;-79
2023/03/06 00:17:20;;;;;;;;;28.00;21.00;;;;;8.56;100.00;100840.84;5050650;28;66159;-78
2023/03/06 00:19:46;;;;;;;;;32.50;20.50;;;;;8.55;100.00;100840.81;5028272;28;45487;-79
2023/03/06 00:22:14;;;;;;;;;26.00;22.75;;;;;8.53;100.00;100835.53;5041285;28;45147;-82
2023/03/06 00:24:41;;;;;;;;;27.25;22.25;;;;;8.56;100.00;100834.69;5050770;28;45647;-78
2023/03/06 00:27:07;;;;;;;;;24.75;24.50;;;;;8.58;100.00;100833.00;5129826;22;45437;-79
2023/03/06 00:29:32;;;;;;;;;24.00;21.50;;;;;8.61;100.00;100838.28;5018308;28;46334;-81
2023/03/06 00:31:57;;;;;;;;;24.00;19.00;;;;;8.62;100.00;100829.53;5000401;28;46808;-78
2023/03/06 00:34:23;;;;;;;;;32.50;20.75;;;;;8.66;100.00;100832.25;5015836;28;47291;-78
2023/03/06 00:36:48;;;;;;;;;27.25;20.75;;;;;8.69;100.00;100834.06;5015753;28;45390;-80
2023/03/06 00:39:13;;;;;;;;;27.25;24.00;;;;;8.70;100.00;100822.69;5015259;28;62339;-80
2023/03/06 00:41:39;;;;;;;;;21.50;17.00;;;;;8.72;100.00;100826.22;5014793;28;62159;-78
2023/03/06 00:44:04;;;;;;;;;28.25;21.50;;;;;8.72;100.00;100820.94;4997732;28;70051;-79
2023/03/06 00:46:29;;;;;;;;;31.25;24.00;;;;;8.73;100.00;100825.34;4996643;28;66815;-79
2023/03/06 00:48:55;;;;;;;;;28.00;21.50;;;;;8.72;100.00;100820.94;4997171;28;64590;-79
2023/03/06 00:51:20;;;;;;;;;28.50;21.00;;;;;8.71;100.00;100818.31;5022884;28;45439;-81
2023/03/06 00:53:46;;;;;;;;;24.50;22.75;;;;;8.72;100.00;100818.31;5020000;28;46670;-81
2023/03/06 00:56:11;;;;;;;;;31.25;23.75;;;;;8.71;100.00;100818.31;5025167;28;45660;-79
2023/03/06 00:58:36;;;;;;;;;24.25;21.25;;;;;8.68;100.00;100824.38;5055453;22;48868;-78
2023/03/06 01:01:02;;;;;;;;;26.50;22.00;;;;;8.68;100.00;100823.50;5033067;28;50202;-79
2023/03/06 01:03:27;;;;;;;;;30.50;25.25;;;;;8.69;100.00;100822.66;5015345;28;45658;-80
2023/03/06 01:05:53;;;;;;;;;28.75;22.25;;;;;8.68;100.00;100824.38;5045863;28;53358;-81
2023/03/06 01:08:18;;;;;;;;;37.75;29.50;;;;;8.69;100.00;100834.06;5033191;28;60508;-82
2023/03/06 01:10:43;;;;;;;;;28.50;21.50;;;;;8.62;100.00;100813.75;5036220;28;45526;-78
2023/03/06 01:13:09;;;;;;;;;32.25;26.25;;;;;8.66;100.00;100827.00;5036393;28;49800;-79
2023/03/06 01:15:34;;;;;;;;;27.25;21.00;;;;;8.61;100.00;100822.50;5028470;28;46898;-79
2023/03/06 01:17:59;;;;;;;;;27.50;26.00;;;;;8.57;100.00;100815.41;5040944;28;45527;-80
2023/03/06 01:20:25;;;;;;;;;35.75;26.50;;;;;8.54;100.00;100813.63;5041161;28;46361;-83
2023/03/06 01:22:50;;;;;;;;;28.75;23.50;;;;;8.54;100.00;100818.00;5034872;28;46643;-80
2023/03/06 01:25:16;;;;;;;;;32.25;22.75;;;;;8.52;100.00;100810.06;5036242;28;45436;-79
2023/03/06 01:27:41;;;;;;;;;34.50;24.25;;;;;8.52;100.00;100822.31;5039125;28;45544;-78
2023/03/06 01:30:07;;;;;;;;;33.50;25.00;;;;;8.50;100.00;100811.78;5039200;28;46117;-79
2023/03/06 01:32:33;;;;;;;;;27.75;21.25;;;;;8.48;100.00;100810.00;5037219;28;46023;-79
2023/03/06 01:34:58;;;;;;;;;29.25;22.50;;;;;8.44;100.00;100798.50;5040075;28;45379;-81
2023/03/06 01:37:24;;;;;;;;;26.75;22.75;;;;;8.43;100.00;100799.38;5046157;28;45383;-79
2023/03/06 01:39:49;;;;;;;;;26.25;21.25;;;;;8.39;100.00;100790.53;5037127;28;62094;-79
2023/03/06 01:42:14;;;;;;;;;25.75;21.00;;;;;8.39;100.00;100800.16;5039375;28;70037;-78
2023/03/06 01:45:28;;;;;;;;;24.75;18.00;;;;;8.38;100.00;100790.50;5046741;28;68538;-79
2023/03/06 01:47:53;;;;;;;;;30.00;24.75;;;;;8.37;100.00;100789.63;5045943;28;45455;-79
2023/03/06 01:50:18;;;;;;;;;24.50;19.50;;;;;8.37;100.00;100786.09;5039229;28;64172;-79
2023/03/06 01:52:53;;;;;;;;;24.50;21.25;;;;;8.33;100.00;100778.97;5035680;28;66881;-78
2023/03/06 01:55:22;;;;;;;;;28.25;21.50;;;;;8.29;100.00;100774.50;5035834;28;45394;-82
2023/03/06 01:57:51;;;;;;;;;23.25;21.75;;;;;8.30;100.00;100781.53;5036760;28;45408;-79
2023/03/06 02:00:20;;;;;;;;;33.25;24.75;;;;;8.27;100.00;100782.38;5030315;28;45321;-80
2023/03/06 02:02:58;;;;;;;;;29.00;24.25;;;;;8.27;100.00;100777.09;5033257;28;47349;-78
2023/03/06 02:05:24;;;;;;;;;20.75;17.75;;;;;8.25;100.00;100775.28;5038377;28;45569;-81
2023/03/06 02:07:50;;;;;;;;;26.25;21.25;;;;;8.25;100.00;100765.66;5046418;28;45253;-79
2023/03/06 02:10:18;;;;;;;;;30.00;20.00;;;;;8.26;100.00;100767.44;5034387;28;45486;-79
2023/03/06 02:12:44;;;;;;;;;26.25;21.00;;;;;8.27;100.00;100766.59;5031828;28;45533;-79
2023/03/06 02:15:12;;;;;;;;;22.50;17.50;;;;;8.27;100.00;100771.84;5018194;28;45582;-79
2023/03/06 02:17:37;;;;;;;;;32.25;19.00;;;;;8.26;100.00;100759.56;5023381;28;45559;-79
2023/03/06 02:20:11;;;;;;;;;35.25;23.00;;;;;8.28;100.00;100768.34;5027113;28;45473;-79
2023/03/06 02:23:07;;;;;;;;;28.75;22.25;;;;;8.28;100.00;100770.09;5039923;28;46949;-80
2023/03/06 02:25:36;;;;;;;;;26.50;20.00;;;;;8.26;100.00;100769.19;4992594;28;45376;-79
2023/03/06 02:28:02;;;;;;;;;26.50;19.75;;;;;8.24;100.00;100760.38;5030966;28;45373;-81
2023/03/06 02:30:29;;;;;;;;;24.00;20.00;;;;;8.24;100.00;100747.22;5038550;28;46114;-79
2023/03/06 02:32:56;;;;;;;;;29.75;21.00;;;;;8.25;100.00;100748.97;5047011;28;45551;-79
2023/03/06 02:35:24;;;;;;;;;26.75;20.50;;;;;8.23;100.00;100741.06;5029928;28;45406;-78
2023/03/06 02:37:50;;;;;;;;;29.25;21.75;;;;;8.24;100.00;100736.69;5039967;28;45510;-78
2023/03/06 02:40:17;;;;;;;;;27.00;25.75;;;;;8.20;100.00;100724.34;5037810;28;45392;-79
2023/03/06 02:42:55;;;;;;;;;29.00;19.75;;;;;8.23;100.00;100729.66;5034634;28;47630;-81
2023/03/06 02:45:44;;;;;;;;;29.00;20.75;;;;;8.21;100.00;100726.13;5036560;28;45552;-80
2023/03/06 02:48:11;;;;;;;;;23.00;22.00;;;;;8.17;99.91;100722.56;5039681;28;45507;-79
2023/03/06 02:50:37;;;;;;;;;30.00;20.75;;;;;8.19;100.00;100720.81;5038259;28;45466;-80
2023/03/06 02:53:02;;;;;;;;;28.25;23.25;;;;;8.18;100.00;100726.94;5049661;28;46034;-79
2023/03/06 02:55:27;;;;;;;;;24.00;18.00;;;;;8.17;100.00;100724.28;5031191;28;45470;-79
2023/03/06 02:57:53;;;;;;;;;22.75;18.50;;;;;8.16;100.00;100707.63;5044438;28;61667;-78
2023/03/06 03:00:18;;;;;;;;;29.00;22.50;;;;;8.17;100.00;100716.41;5055252;28;56175;-78
2023/03/06 03:02:44;;;;;;;;;34.00;21.00;;;;;8.14;100.00;100709.31;5056942;28;46855;-81
2023/03/06 03:05:10;;;;;;;;;22.50;19.50;;;;;8.12;99.75;100714.56;5050197;28;67731;-83
2023/03/06 03:07:35;;;;;;;;;16.00;15.50;;;;;8.14;99.76;100719.84;5056079;28;45418;-80
2023/03/06 03:10:00;;;;;;;;;21.25;17.50;;;;;8.11;99.79;100715.44;5053237;28;64499;-79
2023/03/06 03:12:27;;;;;;;;;25.25;19.25;;;;;8.09;99.57;100718.88;5056192;28;47846;-78
2023/03/06 03:14:54;;;;;;;;;28.25;21.75;;;;;8.09;99.62;100716.25;5035268;28;45546;-78
2023/03/06 03:17:19;;;;;;;;;38.25;25.00;;;;;8.08;99.78;100709.22;5035499;28;45439;-81
2023/03/06 03:19:45;;;;;;;;;21.25;16.00;;;;;8.09;100.00;100710.97;5048374;28;60956;-79
2023/03/06 03:22:10;;;;;;;;;23.50;20.50;;;;;8.09;100.00;100709.25;5053167;28;68953;-78
2023/03/06 03:24:35;;;;;;;;;18.50;17.00;;;;;8.12;100.00;100709.31;5044120;28;67527;-78
2023/03/06 03:27:01;;;;;;;;;27.00;17.75;;;;;8.11;99.87;100712.81;5046831;28;62138;-79
2023/03/06 03:29:26;;;;;;;;;31.50;24.50;;;;;8.09;99.69;100703.09;5031044;28;64401;-82
2023/03/06 03:31:51;;;;;;;;;21.25;17.25;;;;;8.09;99.77;100703.97;5047926;28;63972;-78
2023/03/06 03:34:17;;;;;;;;;25.25;18.75;;;;;8.08;99.87;100712.72;5054932;28;70599;-78
2023/03/06 03:36:43;;;;;;;;;22.00;14.50;;;;;8.06;99.78;100706.56;5049874;28;45513;-78
2023/03/06 03:39:09;;;;;;;;;29.25;20.50;;;;;8.08;99.90;100703.97;5050297;28;45331;-78
2023/03/06 03:41:34;;;;;;;;;30.00;19.75;;;;;8.08;99.55;100698.69;5050936;28;46798;-78
2023/03/06 03:43:59;;;;;;;;;22.50;19.75;;;;;8.06;99.70;100703.94;5046396;28;57656;-80
2023/03/06 03:46:25;;;;;;;;;23.75;19.75;;;;;8.04;99.73;100696.88;5047985;28;63013;-78
2023/03/06 03:48:50;;;;;;;;;32.50;23.00;;;;;8.03;100.00;100692.47;5034288;28;57030;-78
2023/03/06 03:51:16;;;;;;;;;21.25;19.50;;;;;8.01;100.00;100691.56;5056002;28;66695;-81
2023/03/06 03:53:42;;;;;;;;;29.00;21.75;;;;;8.02;100.00;100694.22;5048422;28;64543;-78
2023/03/06 03:56:08;;;;;;;;;27.25;19.00;;;;;8.04;100.00;100694.22;5053099;28;45431;-79
2023/03/06 03:58:33;;;;;;;;;22.00;19.25;;;;;8.03;100.00;100680.19;5045623;28;45323;-80
2023/03/06 04:00:59;;;;;;;;;23.25;15.00;;;;;8.03;100.00;100688.09;5052621;28;46670;-80
2023/03/06 04:03:24;;;;;;;;;28.25;22.50;;;;;8.03;100.00;100682.84;5045859;28;45404;-78
2023/03/06 04:05:52;;;;;;;;;27.50;18.00;;;;;8.05;100.00;100693.41;5036572;28;45359;-79
2023/03/06 04:08:18;;;;;;;;;30.50;21.50;;;;;8.03;100.00;100685.47;5050835;28;45425;-80
2023/03/06 04:10:43;;;;;;;;;25.50;19.75;;;;;8.02;100.00;100678.44;5053649;28;46475;-79
2023/03/06 04:13:09;;;;;;;;;21.25;17.25;;;;;8.02;100.00;100681.06;5052872;28;45500;-81
2023/03/06 04:15:34;;;;;;;;;25.75;19.50;;;;;7.98;100.00;100673.97;5054877;28;45577;-78
2023/03/06 04:17:59;;;;;;;;;26.25;21.00;;;;;7.96;100.00;100674.81;5052295;28;45688;-78
2023/03/06 04:20:25;;;;;;;;;23.50;18.50;;;;;7.94;100.00;100673.91;5051492;28;71034;-78
2023/03/06 04:22:50;;;;;;;;;23.25;20.25;;;;;7.94;100.00;100666.91;5033670;28;68613;-79
2023/03/06 04:25:15;;;;;;;;;27.50;21.50;;;;;7.93;100.00;100661.59;5049117;28;64027;-81
2023/03/06 04:27:41;;;;;;;;;33.25;24.50;;;;;7.94;100.00;100659.03;5046179;28;60476;-80
2023/03/06 04:30:07;;;;;;;;;19.75;12.75;;;;;7.97;100.00;100655.53;5052737;28;50066;-82
2023/03/06 04:32:32;;;;;;;;;29.50;23.50;;;;;7.99;100.00;100653.81;5055022;28;45532;-79
2023/03/06 04:34:57;;;;;;;;;36.50;21.00;;;;;8.01;100.00;100665.28;5051139;28;65400;-78
2023/03/06 04:37:26;;;;;;;;;30.25;23.00;;;;;8.01;100.00;100662.66;5053208;28;62810;-78
2023/03/06 04:39:51;;;;;;;;;25.25;17.75;;;;;8.01;100.00;100660.00;5051997;28;46425;-80
2023/03/06 04:42:17;;;;;;;;;32.25;19.75;;;;;8.01;100.00;100665.28;5030144;28;45355;-81
2023/03/06 04:44:43;;;;;;;;;34.75;21.75;;;;;8.01;100.00;100665.28;5022904;28;45590;-80
2023/03/06 04:47:08;;;;;;;;;24.00;20.00;;;;;8.03;100.00;100666.16;5041533;28;62577;-78
2023/03/06 04:49:33;;;;;;;;;33.00;28.25;;;;;8.01;100.00;100670.53;5047266;28;45861;-78
2023/03/06 04:51:59;;;;;;;;;26.75;22.25;;;;;7.97;100.00;100664.31;5047951;28;67035;-80
2023/03/06 04:54:24;;;;;;;;;25.50;19.00;;;;;7.97;100.00;100671.31;5034046;28;61524;-80
2023/03/06 04:56:49;;;;;;;;;31.25;23.25;;;;;7.94;100.00;100658.13;5024423;28;45449;-78
2023/03/06 04:59:15;;;;;;;;;25.75;18.75;;;;;7.93;100.00;100658.97;5032823;28;45469;-81
2023/03/06 05:01:40;;;;;;;;;30.25;19.00;;;;;7.93;100.00;100658.97;5041994;28;45503;-78
2023/03/06 05:04:06;;;;;;;;;20.50;19.00;;;;;7.92;100.00;100665.09;5031632;28;61663;-81
2023/03/06 05:06:31;;;;;;;;;21.75;18.75;;;;;7.87;100.00;100659.75;5026619;28;54768;-79
2023/03/06 05:08:56;;;;;;;;;32.00;23.75;;;;;7.85;100.00;100658.84;5030096;28;45950;-79
2023/03/06 05:11:22;;;;;;;;;29.75;24.50;;;;;7.82;100.00;100659.66;5035490;28;45469;-78
2023/03/06 05:13:48;;;;;;;;;31.75;23.25;;;;;7.80;100.00;100658.75;5033529;28;45535;-78
2023/03/06 05:16:13;;;;;;;;;22.75;19.50;;;;;7.76;100.00;100654.28;5041321;28;45381;-78
2023/03/06 05:18:38;;;;;;;;;23.25;19.50;;;;;7.78;100.00;100665.72;5018458;28;71744;-80
2023/03/06 05:21:04;;;;;;;;;28.00;20.75;;;;;7.79;100.00;100663.97;5040360;28;67320;-80
2023/03/06 05:23:32;;;;;;;;;30.00;22.75;;;;;7.81;100.00;100663.13;5037778;28;45567;-79
2023/03/06 05:25:58;;;;;;;;;24.00;20.25;;;;;7.79;100.00;100659.59;5038543;28;45181;-78
2023/03/06 05:28:27;;;;;;;;;23.50;19.25;;;;;7.79;100.00;100656.97;5043923;22;48411;-78
2023/03/06 05:30:53;;;;;;;;;23.25;16.00;;;;;7.78;100.00;100656.97;5037749;28;45518;-78
2023/03/06 05:33:18;;;;;;;;;25.00;19.25;;;;;7.79;100.00;100656.97;5020194;28;45406;-78
2023/03/06 05:35:47;;;;;;;;;31.50;20.00;;;;;7.78;100.00;100652.59;5033362;28;57257;-78
2023/03/06 05:38:14;;;;;;;;;22.00;16.00;;;;;7.80;100.00;100648.22;5016589;28;45644;-79
2023/03/06 05:40:40;;;;;;;;;23.75;17.50;;;;;7.81;100.00;100649.13;5039718;22;45554;-79
2023/03/06 05:43:07;;;;;;;;;27.00;19.25;;;;;7.81;100.00;100642.13;5028754;28;46604;-78
2023/03/06 05:45:32;;;;;;;;;24.50;22.50;;;;;7.81;100.00;100644.75;5031246;28;45901;-79
2023/03/06 05:47:57;;;;;;;;;28.50;16.75;;;;;7.80;100.00;100629.84;5017049;28;47394;-80
2023/03/06 05:50:23;;;;;;;;;30.25;17.00;;;;;7.84;100.00;100636.94;5012812;28;69770;-78
2023/03/06 05:52:48;;;;;;;;;28.50;21.50;;;;;7.82;100.00;100614.09;5013800;28;45265;-78
2023/03/06 05:55:14;;;;;;;;;25.00;20.00;;;;;7.84;100.00;100605.38;5026446;28;45453;-78
2023/03/06 05:57:40;;;;;;;;;23.00;16.50;;;;;7.83;100.00;100598.34;5032636;28;46139;-77
2023/03/06 06:00:06;;;;;;;;;24.00;17.00;;;;;7.82;100.00;100598.31;5026250;28;45445;-78
2023/03/06 06:02:31;;;;;;;;;28.75;19.50;;;;;7.83;100.00;100608.00;5030697;28;45504;-80
2023/03/06 06:04:57;;;;;;;;;28.75;16.00;;;;;7.84;100.00;100604.50;5023596;28;54470;-79
2023/03/06 06:07:22;;;;;;;;;22.00;16.00;;;;;7.86;100.00;100592.25;5012757;28;68547;-80
2023/03/06 06:09:47;;;;;;;;;22.50;21.75;;;;;7.84;100.00;100586.97;5029973;28;69992;-80
2023/03/06 06:12:13;;;;;;;;;25.50;22.75;;;;;7.86;100.00;100606.28;5013181;28;54162;-78
2023/03/06 06:14:38;;;;;;;;;26.75;19.75;;;;;7.86;100.00;100603.66;5029800;28;45623;-82
2023/03/06 06:17:04;;;;;;;;;25.00;16.75;;;;;7.84;100.00;100604.50;4997434;28;47980;-76
2023/03/06 06:19:30;;;;;;;;;25.00;19.75;;;;;7.80;100.00;100614.06;5031153;28;45394;-79
2023/03/06 06:21:56;;;;;;;;;37.50;24.50;;;;;7.80;100.00;100605.28;5030394;28;65915;-79
2023/03/06 06:24:23;;;;;;;;;27.75;18.50;;;;;7.81;100.00;100623.72;5031033;28;59104;-82
2023/03/06 06:26:50;;;;;;;;;25.50;16.50;;;;;7.81;100.00;100612.31;5025127;28;46697;-80
2023/03/06 06:29:16;;;;;;;;;26.75;18.50;;;;;7.80;100.00;100619.31;5025233;28;45531;-78
2023/03/06 06:31:42;;;;;;;;;24.25;18.25;;;;;7.78;100.00;100621.03;5035576;28;63508;-79
2023/03/06 06:34:09;;;;;;;;;24.50;16.75;;;;;7.76;100.00;100630.63;5016867;28;45310;-79
2023/03/06 06:36:34;;;;;;;;;28.00;19.25;;;;;7.73;100.00;100641.09;5015735;28;46636;-79
2023/03/06 06:39:00;;;;;;;;;30.75;16.25;;;;;7.71;100.00;100648.03;5035175;28;45496;-83
2023/03/06 06:41:26;;;;;;;;;19.00;13.25;;;;;7.68;100.00;100642.75;5035403;28;45381;-82
2023/03/06 06:43:51;;;;;;;;;32.00;19.75;;;;;7.64;100.00;100645.28;5018586;28;45525;-81
2023/03/06 06:46:17;;;;;;;;;37.25;20.25;;;;;7.62;100.00;100658.41;5034222;28;46718;-82
2023/03/06 06:48:42;;;;;;;;;19.25;19.25;;;;;7.60;100.00;100649.56;5031844;28;45434;-81
2023/03/06 06:51:08;;;;;;;;;20.25;17.00;;;;;7.56;100.00;100650.38;5016627;28;45404;-83
2023/03/06 06:53:33;;;;;;;;;32.75;24.25;;;;;7.57;100.00;100652.16;5029132;28;58422;-80
2023/03/06 06:55:59;;;;;;;;;15.25;14.75;;;;;7.53;100.00;100651.19;4989444;28;47375;-81
2023/03/06 06:58:25;;;;;;;;;20.25;18.25;;;;;7.53;100.00;100645.94;5018054;28;57528;-80
2023/03/06 07:00:50;;;;;;;;;32.00;17.75;;;;;7.55;100.00;100651.22;5016354;28;45442;-80
2023/03/06 07:03:16;;;;;;;;;19.00;17.25;;;;;7.53;100.00;100648.56;5020416;28;45345;-81
2023/03/06 07:05:41;;;;;;;;;18.75;16.25;;;;;7.54;100.00;100650.34;5034375;28;46764;-81
2023/03/06 07:08:07;;;;;;;;;28.25;21.50;;;;;7.56;100.00;100639.84;5032216;28;45524;-82
2023/03/06 07:10:32;;;;;;;;;25.00;21.00;;;;;7.56;100.00;100640.78;5031921;28;45548;-82
2023/03/06 07:12:58;;;;;;;;;20.75;15.25;;;;;7.56;100.00;100647.72;5017202;28;45552;-80
2023/03/06 07:15:25;;;;;;;;;18.50;12.75;;;;;7.52;100.00;100641.56;5015912;28;45619;-78
2023/03/06 07:17:51;;;;;;;;;26.25;18.75;;;;;7.50;100.00;100645.00;5031112;28;45298;-80
2023/03/06 07:20:18;;;;;;;;;35.00;17.50;;;;;7.49;100.00;100649.34;5015588;28;45860;-80
2023/03/06 07:22:44;;;;;;;;;26.75;19.75;;;;;7.51;100.00;100641.50;5032202;28;45554;-80
2023/03/06 07:25:09;;;;;;;;;24.25;19.25;;;;;7.54;100.00;100641.56;5037349;28;46416;-80
2023/03/06 07:27:35;;;;;;;;;17.00;15.25;;;;;7.56;100.00;100631.97;5019277;28;45454;-80
2023/03/06 07:30:00;;;;;;;;;18.75;11.50;;;;;7.56;100.00;100629.34;5001257;28;45394;-80
2023/03/06 07:32:25;;;;;;;;;21.75;18.00;;;;;7.59;100.00;100635.56;5032461;28;45656;-80
2023/03/06 07:34:51;;;;;;;;;23.00;16.50;;;;;7.59;100.00;100639.94;5035403;28;45899;-80
2023/03/06 07:37:16;;;;;;;;;24.00;16.25;;;;;7.57;100.00;100647.78;5027469;28;45468;-80
2023/03/06 07:39:41;;;;;;;;;18.50;14.75;;;;;7.54;100.00;100645.09;5015410;28;66442;-80
2023/03/06 07:42:09;;;;;;;;;23.00;18.50;;;;;7.56;100.00;100643.41;5021586;28;45649;-81
2023/03/06 07:44:36;;;;;;;;;18.75;18.25;;;;;7.58;100.00;100646.94;5034951;28;45840;-83
2023/03/06 07:47:02;;;;;;;;;27.00;19.25;;;;;7.58;100.00;100641.66;5036288;28;45543;-81
2023/03/06 07:49:27;;;;;;;;;20.75;14.00;;;;;7.67;100.00;100647.94;5052783;28;45404;-79
2023/03/06 07:51:52;;;;;;;;;19.25;15.50;;;;;7.70;100.00;100648.03;5052121;28;48387;-82
2023/03/06 07:54:18;;;;;;;;;21.75;18.25;;;;;7.72;100.00;100643.66;5051933;28;67341;-81
2023/03/06 07:56:43;;;;;;;;;17.75;12.50;;;;;7.72;100.00;100644.56;5050125;28;60617;-81
2023/03/06 07:59:09;;;;;;;;;23.25;17.25;;;;;7.70;100.00;100641.03;5052094;28;61291;-82
2023/03/06 08:01:38;;;;;;;;;22.25;16.25;;;;;7.73;100.00;100651.59;5036029;28;45666;-81
2023/03/06 08:04:03;;;;;;;;;25.25;15.25;;;;;7.73;100.00;100648.09;5055224;28;46700;-81
2023/03/06 08:06:29;;;;;;;;;26.75;17.75;;;;;7.72;100.00;100639.28;5054393;28;45440;-83
2023/03/06 08:08:55;;;;;;;;;14.50;13.75;;;;;7.77;100.00;100655.16;5052810;28;62014;-80
2023/03/06 08:11:22;;;;;;;;;20.00;14.25;;;;;7.78;100.00;100647.31;5053226;28;45526;-83
2023/03/06 08:13:47;;;;;;;;;24.75;16.50;;;;;7.83;100.00;100655.31;5053188;28;47477;-82
2023/03/06 08:16:14;;;;;;;;;27.75;20.50;;;;;7.88;100.00;100651.91;5052188;28;45550;-83
2023/03/06 08:18:39;;;;;;;;;15.25;15.25;;;;;7.94;100.00;100648.50;5036257;28;45508;-83
2023/03/06 08:21:11;;;;;;;;;29.75;16.75;;;;;8.00;100.00;100653.88;5035887;28;45747;-80
2023/03/06 08:23:36;;;;;;;;;24.50;20.00;;;;;8.05;100.00;100656.59;5052127;28;45555;-84
2023/03/06 08:26:05;;;;;;;;;22.25;14.75;;;;;8.08;100.00;100657.50;5054299;28;45424;-80
2023/03/06 08:28:30;;;;;;;;;20.00;19.50;;;;;8.06;100.00;100661.00;5052023;28;45468;-80
2023/03/06 08:30:56;;;;;;;;;18.00;17.25;;;;;8.08;100.00;100656.63;5036447;28;45585;-80
2023/03/06 08:33:22;;;;;;;;;15.00;12.50;;;;;8.11;100.00;100661.97;5055916;28;47712;-80
2023/03/06 08:35:48;;;;;;;;;23.00;19.00;;;;;8.12;100.00;100663.72;5051886;28;45515;-79
2023/03/06 08:38:13;;;;;;;;;21.00;15.75;;;;;8.15;100.00;100666.41;5049952;28;45488;-81
2023/03/06 08:40:38;;;;;;;;;18.50;15.00;;;;;8.17;100.00;100672.59;5054849;28;45544;-80
2023/03/06 08:43:04;;;;;;;;;16.25;13.50;;;;;8.18;100.00;100661.19;5046440;28;56423;-80
2023/03/06 08:45:29;;;;;;;;;19.75;14.00;;;;;8.19;100.00;100668.22;5050530;28;63021;-80
2023/03/06 08:47:54;;;;;;;;;19.75;17.25;;;;;8.20;100.00;100672.63;5034702;28;45346;-80
2023/03/06 08:50:20;;;;;;;;;19.25;16.25;;;;;8.26;100.00;100677.13;5049276;28;60032;-81
2023/03/06 08:52:45;;;;;;;;;21.25;15.25;;;;;8.32;100.00;100667.59;5056807;28;66017;-81
2023/03/06 08:55:10;;;;;;;;;20.25;15.25;;;;;8.40;100.00;100678.28;5048784;28;55007;-78
2023/03/06 08:57:36;;;;;;;;;20.50;14.75;;;;;8.44;100.00;100671.31;5054625;28;65070;-77
2023/03/06 09:00:07;;;;;;;;;22.00;12.25;;;;;8.45;100.00;100670.47;5053649;28;63862;-78
2023/03/06 09:02:33;;;;;;;;;20.00;15.75;;;;;8.47;100.00;100669.66;5052534;28;45786;-78
2023/03/06 09:05:00;;;;;;;;;16.75;16.75;;;;;8.42;100.00;100676.56;5042308;28;45444;-80
2023/03/06 09:07:25;;;;;;;;;24.50;16.25;;;;;8.38;100.00;100670.38;5033028;28;45572;-79
2023/03/06 09:09:54;;;;;;;;;18.00;14.75;;;;;8.40;100.00;100676.53;5037723;28;45663;-78
2023/03/06 09:12:20;;;;;;;;;20.50;16.00;;;;;8.42;100.00;100683.59;5034518;28;46952;-78
2023/03/06 09:14:45;;;;;;;;;19.75;16.00;;;;;8.44;100.00;100668.69;5047125;28;45342;-78
2023/03/06 09:17:10;;;;;;;;;16.50;13.00;;;;;8.49;100.00;100673.19;5035011;28;52832;-78
2023/03/06 09:19:37;;;;;;;;;19.00;16.50;;;;;8.55;100.00;100669.75;5043612;28;65016;-78
2023/03/06 09:22:02;;;;;;;;;20.00;16.75;;;;;8.65;100.00;100669.94;5052226;28;46586;-78
2023/03/06 09:24:27;;;;;;;;;20.50;16.00;;;;;8.76;100.00;100675.38;5053245;28;46606;-77
2023/03/06 09:26:53;;;;;;;;;18.00;16.50;;;;;8.80;100.00;100664.03;5058462;28;45697;-77
2023/03/06 09:29:18;;;;;;;;;24.00;17.25;;;;;8.86;100.00;100666.75;5055315;28;45642;-78
2023/03/06 09:31:44;;;;;;;;;21.25;16.25;;;;;8.96;100.00;100674.81;5053296;28;46787;-78
2023/03/06 09:34:09;;;;;;;;;20.00;15.50;;;;;8.93;100.00;100658.06;5035735;28;45692;-78
2023/03/06 09:36:35;;;;;;;;;22.00;15.50;;;;;9.02;100.00;100673.13;5043379;28;65367;-79
2023/03/06 09:39:00;;;;;;;;;16.25;11.75;;;;;9.12;100.00;100680.31;5052873;28;45500;-77
2023/03/06 09:41:31;;;;;;;;;20.75;17.00;;;;;9.17;100.00;100680.38;5062585;28;53379;-78
2023/03/06 09:44:03;;;;;;;;;19.75;14.50;;;;;9.21;100.00;100674.25;5052123;28;45389;-78
2023/03/06 09:46:50;;;;;;;;;19.75;17.25;;;;;9.30;100.00;100690.22;5051172;28;45512;-78
2023/03/06 09:49:37;;;;;;;;;19.75;16.25;;;;;9.37;100.00;100680.63;5045871;28;45453;-77
2023/03/06 09:52:40;;;;;;;;;20.00;18.00;;;;;9.42;100.00;100677.19;5028394;28;46785;-79
2023/03/06 09:55:15;;;;;;;;;19.00;17.50;;;;;9.52;99.70;100674.69;5046427;28;45590;-80
2023/03/06 09:57:48;;;;;;;;;21.25;13.25;;;;;9.60;99.65;100673.94;5047170;28;45242;-81
2023/03/06 10:00:16;;;;;;;;;19.25;15.50;;;;;9.71;99.59;100676.69;5053480;28;47261;-81
2023/03/06 10:02:52;;;;;;;;;14.50;12.75;;;;;9.80;99.27;100678.53;5017660;28;47737;-81
2023/03/06 10:05:23;;;;;;;;;19.75;17.50;;;;;9.86;97.80;100676.00;5051885;28;45492;-80
2023/03/06 10:08:05;;;;;;;;;22.50;15.50;;;;;9.93;97.89;100683.09;5030017;28;45464;-80
2023/03/06 10:10:43;;;;;;;;;25.00;16.00;;;;;9.90;96.71;100678.66;5038381;28;45697;-81
2023/03/06 10:13:36;;;;;;;;;17.00;15.25;;;;;9.82;95.45;100669.78;5039532;28;46064;-80
2023/03/06 10:16:26;;;;;;;;;23.25;18.00;;;;;9.84;94.33;100665.41;5040134;28;45328;-82
2023/03/06 10:18:53;;;;;;;;;16.75;15.75;;;;;9.84;94.72;100665.41;5053671;28;45369;-80
2023/03/06 10:21:27;;;;;;;;;18.50;17.25;;;;;9.95;94.93;100669.03;5038626;28;45554;-80
2023/03/06 10:23:55;;;;;;;;;14.00;13.00;;;;;10.11;94.87;100656.91;5038510;28;45556;-80
2023/03/06 10:26:26;;;;;;;;;12.75;12.75;;;;;10.35;93.91;100655.41;5035962;28;45588;-80
2023/03/06 10:29:12;;;;;;;;;20.00;14.25;;;;;10.47;90.98;100661.66;5041660;28;45749;-79
2023/03/06 10:31:43;;;;;;;;;12.25;10.75;;;;;10.52;90.55;100655.56;5017745;28;45616;-80
2023/03/06 10:34:17;;;;;;;;;13.00;12.25;;;;;10.61;90.75;100659.16;5038983;28;46579;-80
2023/03/06 10:36:43;;;;;;;;;17.00;12.25;;;;;10.71;90.36;100652.19;5049861;28;45333;-80
2023/03/06 10:39:14;;;;;;;;;15.75;15.00;;;;;10.80;87.99;100651.38;5054622;28;45522;-80
2023/03/06 10:41:39;;;;;;;;;17.00;11.25;;;;;10.81;85.96;100650.47;5055778;28;45527;-81
2023/03/06 10:44:04;;;;;;;;;11.00;10.00;;;;;10.85;87.64;100652.28;5052037;28;70453;-80
2023/03/06 10:46:35;;;;;;;;;15.50;13.00;;;;;10.92;86.29;100646.16;5050346;28;45483;-80
2023/03/06 10:49:08;;;;;;;;;15.50;13.00;;;;;10.96;85.08;100653.22;5034309;28;45553;-79
2023/03/06 10:51:34;;;;;;;;;12.00;9.75;;;;;10.94;84.36;100650.59;5020349;28;45570;-79
2023/03/06 10:54:17;;;;;;;;;19.00;12.25;;;;;10.94;81.82;100653.22;5037076;28;46497;-81
2023/03/06 10:56:45;;;;;;;;;14.50;9.25;;;;;10.95;81.64;100648.84;5051105;28;45253;-80
2023/03/06 10:59:10;;;;;;;;;12.25;11.75;;;;;11.00;83.25;100652.38;5055140;28;45417;-78
2023/03/06 11:01:36;;;;;;;;;13.00;10.75;;;;;11.05;82.57;100641.84;5056131;28;45470;-80
2023/03/06 11:04:16;;;;;;;;;15.25;10.50;;;;;11.18;83.72;100641.03;5051857;28;46435;-77
2023/03/06 11:06:42;;;;;;;;;21.00;15.75;;;;;11.24;83.57;100649.03;5052839;28;45303;-80
2023/03/06 11:09:22;;;;;;;;;17.50;13.00;;;;;11.21;82.60;100644.59;5038110;28;53618;-79